Time;durP1;ratioP1;P1;durP2;ratioP2;P2;SDS_P1;SDS_P2;PMS_P1;PMS_P2;Temp;Humidity;BMP_temperature;BMP_pressure;BME280_temperature;BME280_humidity;BME280_pressure;Samples;Min_cycle;Max_cycle;Signal;HPM_P1;HPM_P2
2022/01/26 00:06:38;;;;;;;;;;;5.00;83.80;;;;;;5094580;28;19924;-73
2022/01/26 00:09:06;;;;;;;;;;;4.90;83.80;;;;;;5110996;28;19928;-73
2022/01/26 00:11:34;;;;;;;;;;;4.80;83.80;;;;;;5111916;28;19928;-74
2022/01/26 00:14:02;;;;;;;;;;;4.80;83.80;;;;;;5094508;28;19924;-74
2022/01/26 00:16:41;;;;;;;;;;;4.60;83.90;;;;;;5094768;28;19934;-74
2022/01/26 00:19:11;;;;;;;;;;;4.50;84.00;;;;;;5084281;28;19928;-73
2022/01/26 00:21:44;;;;;;;;;;;4.40;84.10;;;;;;5095228;28;20380;-74
2022/01/26 00:29:17;;;;;;;;;;;4.10;84.50;;;;;;5107601;28;19931;-74
2022/01/26 00:40:35;;;;;;;;;;;3.80;85.10;;;;;;5093874;28;19932;-74
2022/01/26 00:43:15;;;;;;;;;;;3.80;85.20;;;;;;5110289;28;19931;-74
2022/01/26 00:45:42;;;;;;;;;;;3.80;85.30;;;;;;5103282;28;20280;-74
2022/01/26 00:48:11;;;;;;;;;;;3.70;85.40;;;;;;5095814;28;19935;-74
2022/01/26 00:50:39;;;;;;;;;;;3.60;85.50;;;;;;5095911;28;19947;-74
2022/01/26 00:53:07;;;;;;;;;;;3.60;85.60;;;;;;5110075;28;19947;-74
2022/01/26 00:55:34;;;;;;;;;;;3.50;85.70;;;;;;5095261;28;20015;-73
2022/01/26 00:58:02;;;;;;;;;;;3.40;85.80;;;;;;5098066;28;20292;-74
2022/01/26 01:00:29;;;;;;;;;;;3.30;85.80;;;;;;5096977;28;19924;-74
2022/01/26 01:02:58;;;;;;;;;;;3.30;85.90;;;;;;5078393;28;19931;-73
2022/01/26 01:05:50;;;;;;;;;;;3.30;86.10;;;;;;5074760;28;19924;-73
2022/01/26 01:08:20;;;;;;;;;;;3.30;86.20;;;;;;5085167;28;20393;-73
2022/01/26 01:10:49;;;;;;;;;;;3.30;86.10;;;;;;5094539;28;19931;-74
2022/01/26 01:13:21;;;;;;;;;;;3.30;86.10;;;;;;5101273;28;19932;-74
2022/01/26 01:15:49;;;;;;;;;;;3.30;86.10;;;;;;5082073;28;20396;-74
2022/01/26 01:18:36;;;;;;;;;;;3.40;86.10;;;;;;5104993;28;19924;-74
2022/01/26 01:29:09;;;;;;;;;;;3.30;86.30;;;;;;5102465;28;19925;-75
2022/01/26 01:31:54;;;;;;;;;;;3.30;86.30;;;;;;5059505;28;19925;-74
2022/01/26 01:34:26;;;;;;;;;;;3.30;86.50;;;;;;5077061;28;20431;-74
2022/01/26 01:36:54;;;;;;;;;;;3.40;86.40;;;;;;5081773;28;19935;-74
2022/01/26 01:39:22;;;;;;;;;;;3.50;86.40;;;;;;5080375;28;19931;-74
2022/01/26 01:41:50;;;;;;;;;;;3.50;86.40;;;;;;5082148;28;19925;-74
2022/01/26 01:44:18;;;;;;;;;;;3.50;86.40;;;;;;5090183;28;19924;-74
2022/01/26 01:46:46;;;;;;;;;;;3.60;86.40;;;;;;5089582;28;19928;-73
2022/01/26 01:49:14;;;;;;;;;;;3.70;86.40;;;;;;5090196;28;19924;-73
2022/01/26 01:51:48;;;;;;;;;;;3.80;86.40;;;;;;5065135;28;19924;-73
2022/01/26 01:54:17;;;;;;;;;;;3.80;86.30;;;;;;5071950;28;19925;-73
2022/01/26 01:57:02;;;;;;;;;;;3.90;86.30;;;;;;5071348;28;19924;-73
2022/01/26 01:59:32;;;;;;;;;;;4.00;86.20;;;;;;5085458;28;19924;-73
2022/01/26 02:02:00;;;;;;;;;;;4.00;86.10;;;;;;5077651;28;19928;-74
2022/01/26 02:04:28;;;;;;;;;;;4.10;86.20;;;;;;5074826;28;20277;-74
2022/01/26 02:06:56;;;;;;;;;;;4.20;86.20;;;;;;5085426;28;19947;-74
2022/01/26 02:09:23;;;;;;;;;;;4.30;86.10;;;;;;5073698;28;20317;-74
2022/01/26 02:11:52;;;;;;;;;;;4.30;86.00;;;;;;5121226;27;19927;-74
2022/01/26 02:14:28;;;;;;;;;;;4.30;85.90;;;;;;5076505;28;19947;-74
2022/01/26 02:17:28;;;;;;;;;;;4.30;85.90;;;;;;5120179;27;19931;-73
2022/01/26 02:55:48;;;;;;;;;;;4.50;85.80;;;;;;5088930;28;19931;-74
2022/01/26 03:03:55;;;;;;;;;;;4.50;85.80;;;;;;5073858;28;19931;-73
2022/01/26 03:06:30;;;;;;;;;;;4.50;85.80;;;;;;5081239;28;20404;-74
2022/01/26 03:09:05;;;;;;;;;;;4.50;85.80;;;;;;5076387;28;20385;-73
2022/01/26 03:11:35;;;;;;;;;;;4.60;85.80;;;;;;5086502;28;19931;-72
2022/01/26 03:14:13;;;;;;;;;;;4.60;85.70;;;;;;5084743;28;19931;-74
2022/01/26 03:16:47;;;;;;;;;;;4.60;85.70;;;;;;5089227;28;19931;-72
2022/01/26 03:19:19;;;;;;;;;;;4.60;85.60;;;;;;5094123;28;19924;-73
2022/01/26 03:22:17;;;;;;;;;;;4.70;85.50;;;;;;5092697;28;19931;-74
2022/01/26 03:30:34;;;;;;;;;;;4.70;85.50;;;;;;5098855;28;20386;-73
2022/01/26 03:35:50;;;;;;;;;;;4.80;85.40;;;;;;5086929;28;20393;-73
2022/01/26 03:38:26;;;;;;;;;;;4.80;85.40;;;;;;5092002;28;19931;-73
2022/01/26 03:41:11;;;;;;;;;;;4.70;85.40;;;;;;5092459;28;19931;-73
2022/01/26 03:43:39;;;;;;;;;;;4.70;85.30;;;;;;5083460;28;19939;-73
2022/01/26 03:46:07;;;;;;;;;;;4.80;85.30;;;;;;5077899;28;19924;-73
2022/01/26 03:48:35;;;;;;;;;;;4.80;85.30;;;;;;5084550;28;20373;-73
2022/01/26 03:51:04;;;;;;;;;;;4.80;85.30;;;;;;5082582;28;19947;-73
2022/01/26 03:53:31;;;;;;;;;;;4.70;85.30;;;;;;5083439;28;19932;-73
2022/01/26 03:55:59;;;;;;;;;;;4.80;85.30;;;;;;5083235;28;19932;-73
2022/01/26 03:58:27;;;;;;;;;;;4.80;85.30;;;;;;5077564;28;19925;-73
2022/01/26 04:00:54;;;;;;;;;;;4.80;85.30;;;;;;5082850;28;19925;-74
2022/01/26 04:03:21;;;;;;;;;;;4.80;85.30;;;;;;5074781;28;19928;-73
2022/01/26 04:05:49;;;;;;;;;;;4.80;85.30;;;;;;5075950;28;20290;-74
2022/01/26 04:08:23;;;;;;;;;;;4.80;85.30;;;;;;5102090;28;19924;-74
2022/01/26 04:11:04;;;;;;;;;;;4.80;85.40;;;;;;5077443;28;19924;-73
2022/01/26 04:13:32;;;;;;;;;;;4.80;85.30;;;;;;5106913;28;19924;-74
2022/01/26 04:15:59;;;;;;;;;;;4.80;85.40;;;;;;5079897;28;19931;-74
2022/01/26 04:18:33;;;;;;;;;;;4.80;85.40;;;;;;5091688;28;19924;-74
2022/01/26 04:21:08;;;;;;;;;;;4.80;85.40;;;;;;5084998;28;19931;-74
2022/01/26 04:23:46;;;;;;;;;;;4.80;85.40;;;;;;5091811;28;19931;-73
2022/01/26 04:26:16;;;;;;;;;;;4.80;85.30;;;;;;5074364;28;20420;-73
2022/01/26 04:28:50;;;;;;;;;;;4.80;85.30;;;;;;5090283;28;19924;-73
2022/01/26 04:31:20;;;;;;;;;;;4.80;85.30;;;;;;5075302;28;19933;-72
2022/01/26 04:33:48;;;;;;;;;;;4.80;85.20;;;;;;5079372;28;19924;-75
2022/01/26 04:36:23;;;;;;;;;;;4.80;85.20;;;;;;5088179;28;19931;-74
2022/01/26 04:38:54;;;;;;;;;;;4.80;85.10;;;;;;5074699;28;19932;-74
2022/01/26 04:43:53;;;;;;;;;;;4.80;85.00;;;;;;5104323;28;19924;-73
2022/01/26 04:46:20;;;;;;;;;;;4.90;85.00;;;;;;5087965;28;20560;-74
2022/01/26 04:48:48;;;;;;;;;;;4.80;85.00;;;;;;5080784;28;19947;-74
2022/01/26 04:51:15;;;;;;;;;;;4.80;84.90;;;;;;5082153;28;19924;-74
2022/01/26 04:53:42;;;;;;;;;;;4.90;85.00;;;;;;5090398;28;19928;-74
2022/01/26 04:56:10;;;;;;;;;;;4.80;84.90;;;;;;5089091;28;19954;-73
2022/01/26 04:58:38;;;;;;;;;;;4.80;84.90;;;;;;5076731;28;19996;-73
2022/01/26 05:01:05;;;;;;;;;;;4.80;84.80;;;;;;5082898;28;20396;-74
2022/01/26 05:03:33;;;;;;;;;;;4.90;84.80;;;;;;5083173;28;20377;-74
2022/01/26 05:06:01;;;;;;;;;;;4.80;84.70;;;;;;5081416;28;20279;-74
2022/01/26 05:08:28;;;;;;;;;;;4.90;84.80;;;;;;5075063;28;19930;-74
2022/01/26 05:10:56;;;;;;;;;;;4.80;84.80;;;;;;5071613;28;19931;-75
2022/01/26 05:13:23;;;;;;;;;;;4.80;84.70;;;;;;5074620;28;19924;-72
2022/01/26 05:15:51;;;;;;;;;;;4.80;84.80;;;;;;5073649;28;19932;-73
2022/01/26 05:18:18;;;;;;;;;;;4.80;84.90;;;;;;5082540;28;19931;-73
2022/01/26 05:20:46;;;;;;;;;;;4.80;85.10;;;;;;5081330;28;20297;-73
2022/01/26 05:23:13;;;;;;;;;;;4.80;85.10;;;;;;5077163;28;20031;-73
2022/01/26 05:25:41;;;;;;;;;;;4.80;85.10;;;;;;5091751;28;19932;-73
2022/01/26 05:28:08;;;;;;;;;;;4.80;85.20;;;;;;5082990;28;19924;-76
2022/01/26 05:30:35;;;;;;;;;;;4.80;85.20;;;;;;5075757;28;19931;-73
2022/01/26 05:33:04;;;;;;;;;;;4.70;85.20;;;;;;5080668;28;19929;-73
2022/01/26 05:35:32;;;;;;;;;;;4.60;85.30;;;;;;5082722;28;19924;-73
2022/01/26 05:37:59;;;;;;;;;;;4.50;85.50;;;;;;5071746;28;19931;-74
2022/01/26 05:40:27;;;;;;;;;;;4.30;85.70;;;;;;5076896;28;19924;-73
2022/01/26 05:42:54;;;;;;;;;;;4.30;85.80;;;;;;5091266;28;19931;-73
2022/01/26 05:45:29;;;;;;;;;;;4.30;85.90;;;;;;5085329;28;19925;-74
2022/01/26 05:47:56;;;;;;;;;;;4.30;86.00;;;;;;5078882;28;19939;-74
2022/01/26 05:50:23;;;;;;;;;;;4.30;86.10;;;;;;5078710;28;19931;-73
2022/01/26 05:52:51;;;;;;;;;;;4.30;86.10;;;;;;5076211;28;20377;-73
2022/01/26 05:55:18;;;;;;;;;;;4.30;86.10;;;;;;5077241;28;19931;-73
2022/01/26 05:57:46;;;;;;;;;;;4.30;86.10;;;;;;5074474;28;19924;-74
2022/01/26 06:00:13;;;;;;;;;;;4.30;86.10;;;;;;5081664;28;19931;-72
2022/01/26 06:02:41;;;;;;;;;;;4.30;86.10;;;;;;5076276;28;19925;-73
2022/01/26 06:05:08;;;;;;;;;;;4.30;86.00;;;;;;5069540;28;19929;-73
2022/01/26 06:07:37;;;;;;;;;;;4.30;86.10;;;;;;5074574;28;19947;-74
2022/01/26 06:10:05;;;;;;;;;;;4.30;86.10;;;;;;5089162;28;19924;-73
2022/01/26 06:12:34;;;;;;;;;;;4.30;86.10;;;;;;5087007;28;19924;-73
2022/01/26 06:15:02;;;;;;;;;;;4.40;86.00;;;;;;5075659;28;19931;-73
2022/01/26 06:17:30;;;;;;;;;;;4.40;86.00;;;;;;5072394;28;20286;-72
2022/01/26 06:19:57;;;;;;;;;;;4.40;86.00;;;;;;5104080;28;19932;-73
2022/01/26 06:22:24;;;;;;;;;;;4.40;85.90;;;;;;5089626;28;19932;-73
2022/01/26 06:24:54;;;;;;;;;;;4.40;85.90;;;;;;5086676;28;19924;-73
2022/01/26 06:27:21;;;;;;;;;;;4.50;85.90;;;;;;5075382;28;19954;-73
2022/01/26 06:29:49;;;;;;;;;;;4.50;85.80;;;;;;5057207;28;19924;-73
2022/01/26 06:32:17;;;;;;;;;;;4.50;85.70;;;;;;5074574;28;19925;-74
2022/01/26 06:34:45;;;;;;;;;;;4.50;85.70;;;;;;5072040;28;20283;-74
2022/01/26 06:37:14;;;;;;;;;;;4.50;85.60;;;;;;5103148;28;20396;-74
2022/01/26 06:39:42;;;;;;;;;;;4.60;85.70;;;;;;5057264;28;19925;-74
2022/01/26 06:42:14;;;;;;;;;;;4.60;85.50;;;;;;5070292;28;19947;-74
2022/01/26 06:45:47;;;;;;;;;;;4.60;85.50;;;;;;5073288;28;19924;-74
2022/01/26 06:50:20;;;;;;;;;;;4.60;85.20;;;;;;5089616;28;20421;-73
2022/01/26 06:52:48;;;;;;;;;;;4.60;85.10;;;;;;5087775;28;20404;-74
2022/01/26 06:55:17;;;;;;;;;;;4.70;85.00;;;;;;5075953;28;19929;-74
2022/01/26 06:57:44;;;;;;;;;;;4.60;84.80;;;;;;5107993;28;20273;-73
2022/01/26 07:00:12;;;;;;;;;;;4.60;84.60;;;;;;5078772;28;20289;-74
2022/01/26 07:02:39;;;;;;;;;;;4.70;84.60;;;;;;5077144;28;19924;-73
2022/01/26 07:05:08;;;;;;;;;;;4.70;84.70;;;;;;5095235;28;20684;-74
2022/01/26 07:07:36;;;;;;;;;;;4.70;84.80;;;;;;5073470;28;19924;-72
2022/01/26 07:10:04;;;;;;;;;;;4.60;84.80;;;;;;5079309;28;19928;-75
2022/01/26 07:12:32;;;;;;;;;;;4.60;84.80;;;;;;5085598;28;19932;-74
2022/01/26 07:21:23;;;;;;;;;;;4.50;84.80;;;;;;5073125;28;19925;-74
2022/01/26 07:23:19;;;;;;;;;;;4.40;84.90;;;;;;5084703;28;19924;-74
2022/01/26 07:25:47;;;;;;;;;;;4.30;85.10;;;;;;5077713;28;19931;-74
2022/01/26 07:28:15;;;;;;;;;;;4.30;85.20;;;;;;5085910;28;19928;-75
2022/01/26 07:30:43;;;;;;;;;;;4.20;85.30;;;;;;5121619;27;19924;-74
2022/01/26 07:33:10;;;;;;;;;;;4.20;85.30;;;;;;5074469;28;19924;-74
2022/01/26 07:35:37;;;;;;;;;;;4.20;85.30;;;;;;5120121;28;20390;-74
2022/01/26 07:38:05;;;;;;;;;;;4.20;85.40;;;;;;5088059;28;19936;-74
2022/01/26 07:40:33;;;;;;;;;;;4.30;85.40;;;;;;5072787;28;19936;-74
2022/01/26 07:43:00;;;;;;;;;;;4.30;85.40;;;;;;5089293;28;19932;-74
2022/01/26 07:45:28;;;;;;;;;;;4.30;85.50;;;;;;5088509;28;19932;-73
2022/01/26 07:47:56;;;;;;;;;;;4.30;85.30;;;;;;5086543;28;19943;-74
2022/01/26 07:50:23;;;;;;;;;;;4.30;85.30;;;;;;5076306;28;19924;-74
2022/01/26 07:52:51;;;;;;;;;;;4.30;85.20;;;;;;5070250;28;19931;-74
2022/01/26 07:55:21;;;;;;;;;;;4.30;85.30;;;;;;5079833;28;19939;-75
2022/01/26 07:57:50;;;;;;;;;;;4.30;85.50;;;;;;5077280;28;20413;-74
2022/01/26 08:00:19;;;;;;;;;;;4.20;85.60;;;;;;5077144;28;19924;-74
2022/01/26 08:02:47;;;;;;;;;;;4.20;85.80;;;;;;5077025;28;19940;-73
2022/01/26 08:05:15;;;;;;;;;;;4.10;86.00;;;;;;5104834;28;19924;-74
2022/01/26 08:07:42;;;;;;;;;;;4.10;86.20;;;;;;5073592;28;20445;-74
2022/01/26 08:10:10;;;;;;;;;;;4.10;86.20;;;;;;5086609;28;19924;-74
2022/01/26 08:12:38;;;;;;;;;;;4.00;86.30;;;;;;5115093;28;19924;-74
2022/01/26 08:15:22;;;;;;;;;;;4.00;86.30;;;;;;5105183;28;19924;-75
2022/01/26 08:17:49;;;;;;;;;;;4.10;86.60;;;;;;5105163;28;19924;-74
2022/01/26 08:20:17;;;;;;;;;;;4.20;86.40;;;;;;5083813;28;19928;-74
2022/01/26 08:22:44;;;;;;;;;;;4.20;86.30;;;;;;5116916;27;20392;-74
2022/01/26 08:25:12;;;;;;;;;;;4.20;86.30;;;;;;5084902;27;19924;-73
2022/01/26 08:27:47;;;;;;;;;;;4.20;86.20;;;;;;5114720;27;19931;-74
2022/01/26 08:30:18;;;;;;;;;;;4.20;86.30;;;;;;5086480;28;19932;-74
2022/01/26 08:32:45;;;;;;;;;;;4.30;86.30;;;;;;5074416;28;19928;-76
2022/01/26 08:35:13;;;;;;;;;;;4.30;86.30;;;;;;5080619;28;19943;-74
2022/01/26 08:37:40;;;;;;;;;;;4.30;86.20;;;;;;5093776;28;19924;-74
2022/01/26 08:40:07;;;;;;;;;;;4.30;86.30;;;;;;5094822;28;19924;-75
2022/01/26 08:42:37;;;;;;;;;;;4.30;86.30;;;;;;5127727;27;19928;-74
2022/01/26 08:45:05;;;;;;;;;;;4.30;86.20;;;;;;5085911;28;19925;-74
2022/01/26 08:47:33;;;;;;;;;;;4.30;86.30;;;;;;5074189;28;19924;-73
2022/01/26 08:50:01;;;;;;;;;;;4.30;86.30;;;;;;5073002;28;20270;-74
2022/01/26 08:52:28;;;;;;;;;;;4.40;86.30;;;;;;5089992;28;19943;-75
2022/01/26 08:54:55;;;;;;;;;;;4.50;86.20;;;;;;5077000;28;20305;-75
2022/01/26 08:57:23;;;;;;;;;;;4.50;86.20;;;;;;5094391;28;19931;-74
2022/01/26 08:59:50;;;;;;;;;;;4.60;86.10;;;;;;5127250;27;19924;-73
2022/01/26 09:02:18;;;;;;;;;;;4.60;85.90;;;;;;5094101;28;19932;-73
2022/01/26 09:04:46;;;;;;;;;;;4.70;85.80;;;;;;5093492;28;19925;-73
2022/01/26 09:07:16;;;;;;;;;;;4.80;85.70;;;;;;5074204;28;19924;-74
2022/01/26 09:09:45;;;;;;;;;;;4.80;85.80;;;;;;5072692;28;19932;-75
2022/01/26 09:12:14;;;;;;;;;;;4.80;85.60;;;;;;5056042;28;19924;-73
2022/01/26 09:14:42;;;;;;;;;;;4.90;85.40;;;;;;5072284;28;20297;-73
2022/01/26 09:17:11;;;;;;;;;;;4.90;85.20;;;;;;5085007;28;19972;-75
2022/01/26 09:19:41;;;;;;;;;;;5.00;85.20;;;;;;5093027;28;20381;-73
2022/01/26 09:22:09;;;;;;;;;;;5.00;85.00;;;;;;5092201;28;19924;-74
2022/01/26 09:24:38;;;;;;;;;;;5.00;84.90;;;;;;5072004;28;20381;-75
2022/01/26 09:27:06;;;;;;;;;;;5.00;84.80;;;;;;5071941;28;19935;-73
2022/01/26 09:29:34;;;;;;;;;;;5.10;84.80;;;;;;5073110;28;19929;-73
2022/01/26 09:32:03;;;;;;;;;;;5.10;84.70;;;;;;5105931;28;19928;-73
2022/01/26 09:34:35;;;;;;;;;;;5.20;84.50;;;;;;5073204;28;19935;-74
2022/01/26 09:37:03;;;;;;;;;;;5.20;84.50;;;;;;5092054;28;19924;-73
2022/01/26 09:39:31;;;;;;;;;;;5.30;84.40;;;;;;5093340;28;20266;-73
2022/01/26 09:41:58;;;;;;;;;;;5.30;84.10;;;;;;5093298;28;19931;-74
2022/01/26 09:44:26;;;;;;;;;;;5.40;83.70;;;;;;5093051;28;19931;-74
2022/01/26 09:46:53;;;;;;;;;;;5.50;83.70;;;;;;5091884;28;19947;-74
2022/01/26 09:49:22;;;;;;;;;;;5.50;83.60;;;;;;5093037;28;19931;-74
2022/01/26 09:51:49;;;;;;;;;;;5.50;83.60;;;;;;5075233;28;20381;-74
2022/01/26 09:54:18;;;;;;;;;;;5.50;83.40;;;;;;5093318;28;20409;-74
2022/01/26 09:56:47;;;;;;;;;;;5.60;83.30;;;;;;5093167;28;20301;-74
2022/01/26 09:59:15;;;;;;;;;;;5.60;83.50;;;;;;5092869;28;20391;-74
2022/01/26 10:01:44;;;;;;;;;;;5.60;83.40;;;;;;5093263;28;19924;-73
2022/01/26 10:04:29;;;;;;;;;;;5.70;83.00;;;;;;5093012;28;20369;-74
2022/01/26 10:07:00;;;;;;;;;;;5.70;82.90;;;;;;5091967;28;19932;-74
2022/01/26 10:17:40;;;;;;;;;;;5.90;82.40;;;;;;5074586;28;20405;-74
2022/01/26 10:20:17;;;;;;;;;;;5.90;82.20;;;;;;5091691;28;19924;-75
2022/01/26 10:22:45;;;;;;;;;;;5.90;82.50;;;;;;5125899;27;19924;-75
2022/01/26 10:25:14;;;;;;;;;;;5.80;82.60;;;;;;5092878;28;19924;-74
2022/01/26 10:28:01;;;;;;;;;;;5.80;82.80;;;;;;5078763;28;19925;-74
2022/01/26 10:30:29;;;;;;;;;;;5.80;82.90;;;;;;5077947;28;20369;-74
2022/01/26 10:32:56;;;;;;;;;;;5.80;83.00;;;;;;5092818;28;19924;-74
2022/01/26 10:35:23;;;;;;;;;;;5.80;83.00;;;;;;5092763;28;20391;-74
2022/01/26 10:37:57;;;;;;;;;;;5.90;83.00;;;;;;5092824;28;20300;-73
2022/01/26 10:40:26;;;;;;;;;;;5.90;82.90;;;;;;5090870;28;20033;-72
2022/01/26 10:42:59;;;;;;;;;;;6.00;82.70;;;;;;5054819;28;19925;-74
2022/01/26 10:45:33;;;;;;;;;;;6.00;82.70;;;;;;5071386;28;19936;-72
2022/01/26 10:48:20;;;;;;;;;;;6.00;82.70;;;;;;5072356;28;20254;-74
2022/01/26 10:53:41;;;;;;;;;;;6.20;82.80;;;;;;5072576;28;19932;-73
2022/01/26 10:56:08;;;;;;;;;;;6.30;82.80;;;;;;5070459;28;19924;-73
2022/01/26 10:58:36;;;;;;;;;;;6.30;82.70;;;;;;5072180;28;19925;-73
2022/01/26 11:01:04;;;;;;;;;;;6.40;82.50;;;;;;5072096;28;19936;-74
2022/01/26 11:03:33;;;;;;;;;;;6.60;82.30;;;;;;5054137;28;19931;-73
2022/01/26 11:06:05;;;;;;;;;;;6.70;82.00;;;;;;5070854;28;19932;-73
2022/01/26 11:08:38;;;;;;;;;;;6.70;81.70;;;;;;5071037;28;19924;-73
2022/01/26 11:11:06;;;;;;;;;;;6.80;81.30;;;;;;5054379;28;19924;-73
2022/01/26 11:13:37;;;;;;;;;;;7.00;80.60;;;;;;5070654;28;19932;-73
2022/01/26 11:16:12;;;;;;;;;;;7.20;80.10;;;;;;5070851;28;19931;-73
2022/01/26 11:18:51;;;;;;;;;;;7.30;79.60;;;;;;5071906;28;19925;-73
2022/01/26 11:21:25;;;;;;;;;;;7.40;79.60;;;;;;5070503;28;20385;-73
2022/01/26 11:24:03;;;;;;;;;;;7.50;79.30;;;;;;5071761;28;19925;-74
2022/01/26 11:26:31;;;;;;;;;;;7.70;78.90;;;;;;5071924;28;19924;-73
2022/01/26 11:28:59;;;;;;;;;;;7.80;78.20;;;;;;5071968;28;19925;-74
2022/01/26 11:31:28;;;;;;;;;;;7.90;77.40;;;;;;5057887;28;19929;-74
2022/01/26 11:34:16;;;;;;;;;;;8.00;77.60;;;;;;5074523;28;19943;-74
2022/01/26 11:36:44;;;;;;;;;;;8.10;77.30;;;;;;5057853;28;19925;-74
2022/01/26 11:42:14;;;;;;;;;;;8.20;77.30;;;;;;5075168;28;19924;-74
2022/01/26 11:47:30;;;;;;;;;;;8.30;75.90;;;;;;5073708;28;20421;-74
2022/01/26 11:50:08;;;;;;;;;;;8.40;75.70;;;;;;5074217;28;19932;-74
2022/01/26 11:52:38;;;;;;;;;;;8.50;75.90;;;;;;5074223;28;19924;-81
2022/01/26 11:55:17;;;;;;;;;;;8.60;75.40;;;;;;5075217;28;19925;-74
2022/01/26 11:57:52;;;;;;;;;;;8.80;75.50;;;;;;5075194;28;19925;-73
2022/01/26 12:00:38;;;;;;;;;;;9.10;75.70;;;;;;5074076;28;20297;-74
2022/01/26 12:03:10;;;;;;;;;;;9.50;75.30;;;;;;5073553;28;19932;-73
2022/01/26 12:05:43;;;;;;;;;;;9.90;74.20;;;;;;5074931;28;19925;-73
2022/01/26 12:08:11;;;;;;;;;;;10.20;74.20;;;;;;5074691;28;19924;-74
2022/01/26 12:10:39;;;;;;;;;;;10.40;71.70;;;;;;5073559;28;20294;-74
2022/01/26 12:13:17;;;;;;;;;;;10.60;70.20;;;;;;5074975;28;19924;-74
2022/01/26 12:15:55;;;;;;;;;;;10.70;70.20;;;;;;5074805;28;19925;-74
2022/01/26 12:18:49;;;;;;;;;;;10.80;70.10;;;;;;5073513;28;19947;-75
2022/01/26 12:35:28;;;;;;;;;;;11.50;65.80;;;;;;5095049;28;19928;-74
2022/01/26 12:38:18;;;;;;;;;;;11.50;65.10;;;;;;5082731;28;19924;-73
2022/01/26 12:43:45;;;;;;;;;;;11.50;64.60;;;;;;5092842;28;19935;-74
2022/01/26 12:46:18;;;;;;;;;;;11.70;64.30;;;;;;5093505;28;19924;-73
2022/01/26 12:48:50;;;;;;;;;;;11.80;63.50;;;;;;5094643;28;19931;-73
2022/01/26 12:51:17;;;;;;;;;;;11.90;63.20;;;;;;5094958;27;19924;-73
2022/01/26 12:53:50;;;;;;;;;;;12.00;62.40;;;;;;5094200;28;19931;-73
2022/01/26 12:56:18;;;;;;;;;;;12.00;62.30;;;;;;5094541;28;19925;-73
2022/01/26 12:58:45;;;;;;;;;;;12.10;61.40;;;;;;5094444;28;19924;-75
2022/01/26 13:01:17;;;;;;;;;;;12.20;61.00;;;;;;5093557;28;19924;-72
2022/01/26 13:03:48;;;;;;;;;;;12.20;60.60;;;;;;5093124;28;19924;-73
2022/01/26 13:06:23;;;;;;;;;;;12.30;60.00;;;;;;5094387;28;19924;-73
2022/01/26 13:08:52;;;;;;;;;;;12.30;59.60;;;;;;5093893;28;19931;-74
2022/01/26 13:11:26;;;;;;;;;;;12.30;59.60;;;;;;5093890;28;19931;-74
2022/01/26 13:14:13;;;;;;;;;;;12.40;60.50;;;;;;5092275;28;19928;-73
2022/01/26 13:16:55;;;;;;;;;;;12.70;60.20;;;;;;5074000;28;19932;-74
2022/01/26 13:27:40;;;;;;;;;;;13.40;57.10;;;;;;5050786;28;19925;-73
2022/01/26 13:30:50;;;;;;;;;;;13.50;55.90;;;;;;5051170;28;19925;-74
2022/01/26 13:41:42;;;;;;;;;;;13.70;54.60;;;;;;5031346;28;19925;-73
2022/01/26 13:47:09;;;;;;;;;;;13.10;56.20;;;;;;5035477;28;19926;-73
2022/01/26 13:57:49;;;;;;;;;;;12.20;58.80;;;;;;5030561;28;19933;-72
2022/01/26 14:00:19;;;;;;;;;;;12.30;58.40;;;;;;5055567;28;20321;-73
2022/01/26 14:02:49;;;;;;;;;;;12.40;57.60;;;;;;5034054;28;19932;-73
2022/01/26 14:05:17;;;;;;;;;;;12.50;57.50;;;;;;5066502;28;19924;-73
2022/01/26 14:07:45;;;;;;;;;;;12.60;57.20;;;;;;5072069;28;19924;-73
2022/01/26 14:10:12;;;;;;;;;;;12.70;57.10;;;;;;5071702;28;19924;-73
2022/01/26 14:12:45;;;;;;;;;;;12.70;57.90;;;;;;5071223;28;20405;-73
2022/01/26 14:15:18;;;;;;;;;;;12.80;57.50;;;;;;5080976;28;19931;-74
2022/01/26 14:20:43;;;;;;;;;;;13.00;57.60;;;;;;5092882;28;19931;-74
2022/01/26 14:25:53;;;;;;;;;;;12.80;56.50;;;;;;5073354;28;19931;-74
2022/01/26 14:28:27;;;;;;;;;;;12.60;57.30;;;;;;5091274;28;20304;-75
2022/01/26 14:31:10;;;;;;;;;;;12.30;57.70;;;;;;5092967;28;19924;-72
2022/01/26 14:33:51;;;;;;;;;;;11.60;59.50;;;;;;5091955;28;19928;-72
2022/01/26 14:36:44;;;;;;;;;;;10.80;61.90;;;;;;5083213;28;20285;-73
2022/01/26 14:53:43;;;;;;;;;;;9.30;68.90;;;;;;5086692;28;19935;-73
2022/01/26 15:20:50;;;;;;;;;;;9.40;70.50;;;;;;5076155;28;19928;-73
2022/01/26 15:45:03;;;;;;;;;;;8.70;72.50;;;;;;5104295;28;19935;-73
2022/01/26 15:50:41;;;;;;;;;;;8.60;72.70;;;;;;5081026;28;19940;-73
2022/01/26 15:58:50;;;;;;;;;;;8.60;73.10;;;;;;5084128;28;19931;-73
2022/01/26 16:21:04;;;;;;;;;;;7.90;74.50;;;;;;5101946;28;19942;-74
2022/01/26 16:37:47;;;;;;;;;;;7.30;75.90;;;;;;5088632;28;19924;-74
2022/01/26 17:43:51;;;;;;;;;;;6.20;79.50;;;;;;5012201;28;19925;-75
2022/01/26 18:16:43;;;;;;;;;;;6.30;80.70;;;;;;5091534;28;19928;-75
2022/01/26 18:32:56;;;;;;;;;;;6.20;81.90;;;;;;5090718;28;19935;-75
2022/01/26 18:51:38;;;;;;;;;;;6.30;82.00;;;;;;5090740;28;19924;-75
2022/01/26 18:54:07;;;;;;;;;;;6.40;81.80;;;;;;5092031;28;19924;-75
2022/01/26 18:56:35;;;;;;;;;;;6.50;81.50;;;;;;5085900;28;20389;-75
2022/01/26 18:59:03;;;;;;;;;;;6.50;81.30;;;;;;5091104;28;19928;-75
2022/01/26 19:01:32;;;;;;;;;;;6.50;81.20;;;;;;5104563;28;20536;-75
2022/01/26 19:04:29;;;;;;;;;;;6.50;81.20;;;;;;5093013;28;20270;-75
2022/01/26 19:06:57;;;;;;;;;;;6.60;81.20;;;;;;5090283;28;19924;-75
2022/01/26 19:09:28;;;;;;;;;;;6.50;81.20;;;;;;5097693;28;19924;-75
2022/01/26 19:11:56;;;;;;;;;;;6.50;81.40;;;;;;5092374;28;19952;-75
2022/01/26 19:14:29;;;;;;;;;;;6.50;81.20;;;;;;5086701;28;20297;-76
2022/01/26 19:17:07;;;;;;;;;;;6.60;81.20;;;;;;5091783;28;19931;-75
2022/01/26 19:28:43;;;;;;;;;;;6.80;80.70;;;;;;5084718;28;19932;-75
2022/01/26 19:44:52;;;;;;;;;;;7.10;79.40;;;;;;5097346;28;19931;-76
2022/01/26 19:52:43;;;;;;;;;;;7.10;79.40;;;;;;5078679;28;19931;-75
2022/01/26 19:55:12;;;;;;;;;;;7.20;79.40;;;;;;5115729;28;20293;-75
2022/01/26 19:57:41;;;;;;;;;;;7.20;79.20;;;;;;5103671;28;19931;-74
2022/01/26 20:00:09;;;;;;;;;;;7.20;79.30;;;;;;5094209;28;19931;-75
2022/01/26 20:02:37;;;;;;;;;;;7.20;79.20;;;;;;5097467;28;20385;-75
2022/01/26 20:05:05;;;;;;;;;;;7.30;79.30;;;;;;5095751;28;19932;-73
2022/01/26 20:07:33;;;;;;;;;;;7.20;79.20;;;;;;5100978;28;19928;-74
2022/01/26 20:10:04;;;;;;;;;;;7.20;79.20;;;;;;5093785;28;20288;-75
2022/01/26 20:15:04;;;;;;;;;;;7.20;79.20;;;;;;5092460;28;19935;-75
2022/01/26 20:17:33;;;;;;;;;;;7.20;79.20;;;;;;5109753;28;19957;-76
2022/01/26 20:20:01;;;;;;;;;;;7.10;79.40;;;;;;5099441;28;19928;-75
2022/01/26 20:22:29;;;;;;;;;;;7.00;79.40;;;;;;5095083;28;20312;-75
2022/01/26 20:24:56;;;;;;;;;;;7.00;79.70;;;;;;5100057;27;19931;-74
2022/01/26 20:27:24;;;;;;;;;;;6.90;79.90;;;;;;5095111;28;19928;-74
2022/01/26 20:30:03;;;;;;;;;;;6.80;80.20;;;;;;5113133;28;19978;-74
2022/01/26 20:32:31;;;;;;;;;;;6.80;80.50;;;;;;5102754;28;20365;-74
2022/01/26 20:34:59;;;;;;;;;;;6.80;80.60;;;;;;5106154;28;19923;-74
2022/01/26 20:37:27;;;;;;;;;;;6.80;80.70;;;;;;5114790;28;19927;-74
2022/01/26 20:39:56;;;;;;;;;;;6.80;80.70;;;;;;5113261;28;20301;-75
2022/01/26 20:42:23;;;;;;;;;;;6.80;80.80;;;;;;5100087;28;19936;-74
2022/01/26 20:44:51;;;;;;;;;;;6.80;80.90;;;;;;5094391;28;20396;-73
2022/01/26 20:47:19;;;;;;;;;;;6.70;81.10;;;;;;5094616;27;19924;-74
2022/01/26 20:49:47;;;;;;;;;;;6.70;81.20;;;;;;5094382;28;19924;-74
2022/01/26 20:52:14;;;;;;;;;;;6.70;81.50;;;;;;5092700;28;19940;-74
2022/01/26 20:54:42;;;;;;;;;;;6.80;81.40;;;;;;5092922;28;19931;-75
2022/01/26 20:57:10;;;;;;;;;;;6.80;81.50;;;;;;5092724;28;19924;-74
2022/01/26 20:59:37;;;;;;;;;;;6.80;81.50;;;;;;5089787;28;19947;-76
2022/01/26 21:02:05;;;;;;;;;;;6.80;81.50;;;;;;5092140;28;19928;-75
2022/01/26 21:04:33;;;;;;;;;;;6.80;81.50;;;;;;5091879;28;19924;-75
2022/01/26 21:07:01;;;;;;;;;;;6.80;81.60;;;;;;5074553;28;19936;-75
2022/01/26 21:09:29;;;;;;;;;;;6.80;81.80;;;;;;5074621;28;19931;-75
2022/01/26 21:11:56;;;;;;;;;;;6.80;82.10;;;;;;5094809;28;19928;-75
2022/01/26 21:14:24;;;;;;;;;;;6.80;82.20;;;;;;5090948;28;19924;-75
2022/01/26 21:16:51;;;;;;;;;;;6.90;82.00;;;;;;5091455;28;20377;-74
2022/01/26 21:19:19;;;;;;;;;;;7.00;81.90;;;;;;5096043;28;19925;-75
2022/01/26 21:21:47;;;;;;;;;;;7.10;81.60;;;;;;5074129;28;19931;-76
2022/01/26 21:24:34;;;;;;;;;;;7.10;81.50;;;;;;5089666;28;20301;-76
2022/01/26 21:27:01;;;;;;;;;;;7.10;81.50;;;;;;5092448;28;19936;-76
2022/01/26 21:29:29;;;;;;;;;;;7.20;81.60;;;;;;5091166;28;19935;-76
2022/01/26 21:31:56;;;;;;;;;;;7.20;81.50;;;;;;5093076;28;19924;-75
2022/01/26 21:34:24;;;;;;;;;;;7.20;81.50;;;;;;5091942;28;19924;-75
2022/01/26 21:36:51;;;;;;;;;;;7.20;81.50;;;;;;5090795;28;19924;-75
2022/01/26 21:39:19;;;;;;;;;;;7.20;81.50;;;;;;5091016;28;19932;-74
2022/01/26 21:41:48;;;;;;;;;;;7.20;81.70;;;;;;5091236;28;19924;-75